sensor_id;sensor_type;location;lat;lon;timestamp;pressure;altitude;pressure_sealevel;temperature;humidity
2875;BME280;1445;52.600;13.328;2023-03-20T00:01:27;100921.53;;;11.27;100.00
2875;BME280;1445;52.600;13.328;2023-03-20T00:03:54;100919.09;;;11.39;100.00
2875;BME280;1445;52.600;13.328;2023-03-20T00:06:25;100926.94;;;11.32;100.00
2875;BME280;1445;52.600;13.328;2023-03-20T00:08:52;100926.66;;;11.34;100.00
2875;BME280;1445;52.600;13.328;2023-03-20T00:11:39;100924.78;;;11.29;100.00
2875;BME280;1445;52.600;13.328;2023-03-20T00:14:11;100924.97;;;11.19;100.00
2875;BME280;1445;52.600;13.328;2023-03-20T00:16:39;100919.66;;;11.22;100.00
2875;BME280;1445;52.600;13.328;2023-03-20T00:19:13;100925.78;;;11.19;100.00
2875;BME280;1445;52.600;13.328;2023-03-20T00:21:38;100921.69;;;10.98;100.00
2875;BME280;1445;52.600;13.328;2023-03-20T00:24:05;100927.09;;;10.89;100.00
2875;BME280;1445;52.600;13.328;2023-03-20T00:26:33;100924.41;;;10.84;100.00
2875;BME280;1445;52.600;13.328;2023-03-20T00:29:00;100929.78;;;10.75;100.00
2875;BME280;1445;52.600;13.328;2023-03-20T00:31:28;100933.88;;;10.59;100.00
2875;BME280;1445;52.600;13.328;2023-03-20T00:33:55;100941.44;;;10.48;100.00
2875;BME280;1445;52.600;13.328;2023-03-20T00:36:22;100934.44;;;10.37;100.00
2875;BME280;1445;52.600;13.328;2023-03-20T00:38:47;100934.56;;;10.27;100.00
2875;BME280;1445;52.600;13.328;2023-03-20T00:41:50;100935.38;;;10.27;100.00
2875;BME280;1445;52.600;13.328;2023-03-20T00:47:03;100943.88;;;10.31;100.00
2875;BME280;1445;52.600;13.328;2023-03-20T00:49:32;100945.19;;;10.15;100.00
2875;BME280;1445;52.600;13.328;2023-03-20T00:52:00;100941.56;;;10.14;100.00
2875;BME280;1445;52.600;13.328;2023-03-20T00:54:26;100945.75;;;10.12;100.00
2875;BME280;1445;52.600;13.328;2023-03-20T00:57:08;100939.91;;;10.18;100.00
2875;BME280;1445;52.600;13.328;2023-03-20T00:59:41;100944.88;;;10.16;100.00
2875;BME280;1445;52.600;13.328;2023-03-20T01:02:12;100946.28;;;10.14;100.00
2875;BME280;1445;52.600;13.328;2023-03-20T01:04:40;100946.03;;;10.10;100.00
2875;BME280;1445;52.600;13.328;2023-03-20T01:07:10;100944.72;;;10.08;100.00
2875;BME280;1445;52.600;13.328;2023-03-20T01:09:36;100946.91;;;10.06;100.00
2875;BME280;1445;52.600;13.328;2023-03-20T01:12:03;100949.84;;;10.14;100.00
2875;BME280;1445;52.600;13.328;2023-03-20T01:14:29;100945.88;;;10.01;100.00
2875;BME280;1445;52.600;13.328;2023-03-20T01:16:54;100950.38;;;9.92;100.00
2875;BME280;1445;52.600;13.328;2023-03-20T01:19:20;100950.19;;;9.84;100.00
2875;BME280;1445;52.600;13.328;2023-03-20T01:21:45;100957.03;;;9.86;100.00
2875;BME280;1445;52.600;13.328;2023-03-20T01:24:11;100955.94;;;9.87;100.00
2875;BME280;1445;52.600;13.328;2023-03-20T01:26:40;100956.28;;;9.80;100.00
2875;BME280;1445;52.600;13.328;2023-03-20T01:29:23;100966.66;;;9.89;100.00
2875;BME280;1445;52.600;13.328;2023-03-20T01:31:50;100966.97;;;9.87;100.00
2875;BME280;1445;52.600;13.328;2023-03-20T01:34:16;100974.88;;;9.94;100.00
2875;BME280;1445;52.600;13.328;2023-03-20T01:36:53;100963.44;;;10.06;100.00
2875;BME280;1445;52.600;13.328;2023-03-20T01:39:20;100965.56;;;10.14;100.00
2875;BME280;1445;52.600;13.328;2023-03-20T01:41:52;100957.25;;;10.19;100.00
2875;BME280;1445;52.600;13.328;2023-03-20T01:44:21;100957.75;;;10.21;100.00
2875;BME280;1445;52.600;13.328;2023-03-20T01:46:48;100961.00;;;10.28;100.00
2875;BME280;1445;52.600;13.328;2023-03-20T01:51:45;100950.75;;;10.34;100.00
2875;BME280;1445;52.600;13.328;2023-03-20T01:54:32;100953.19;;;10.35;100.00
2875;BME280;1445;52.600;13.328;2023-03-20T02:02:08;100961.00;;;10.04;100.00
2875;BME280;1445;52.600;13.328;2023-03-20T02:04:40;100965.25;;;9.91;100.00
2875;BME280;1445;52.600;13.328;2023-03-20T02:07:09;100964.94;;;9.93;100.00
2875;BME280;1445;52.600;13.328;2023-03-20T02:09:35;100969.66;;;9.92;100.00
2875;BME280;1445;52.600;13.328;2023-03-20T02:12:01;100970.63;;;9.77;100.00
2875;BME280;1445;52.600;13.328;2023-03-20T02:14:28;100969.94;;;9.91;100.00
2875;BME280;1445;52.600;13.328;2023-03-20T02:16:53;100973.69;;;9.76;100.00
2875;BME280;1445;52.600;13.328;2023-03-20T02:19:28;100963.75;;;9.75;100.00
2875;BME280;1445;52.600;13.328;2023-03-20T02:25:14;100972.13;;;9.65;100.00
2875;BME280;1445;52.600;13.328;2023-03-20T02:31:00;100973.03;;;9.84;100.00
2875;BME280;1445;52.600;13.328;2023-03-20T02:33:44;100972.22;;;9.84;100.00
2875;BME280;1445;52.600;13.328;2023-03-20T02:36:55;100971.22;;;9.74;100.00
2875;BME280;1445;52.600;13.328;2023-03-20T02:47:32;100983.19;;;9.60;100.00
2875;BME280;1445;52.600;13.328;2023-03-20T02:56:13;100981.88;;;9.52;100.00
2875;BME280;1445;52.600;13.328;2023-03-20T03:01:35;100986.34;;;9.48;100.00
2875;BME280;1445;52.600;13.328;2023-03-20T03:04:14;100987.22;;;9.72;100.00
2875;BME280;1445;52.600;13.328;2023-03-20T03:06:42;100979.78;;;9.73;100.00
2875;BME280;1445;52.600;13.328;2023-03-20T03:09:17;100982.78;;;9.71;100.00
2875;BME280;1445;52.600;13.328;2023-03-20T03:11:48;100977.53;;;9.75;100.00
2875;BME280;1445;52.600;13.328;2023-03-20T03:14:31;100986.59;;;9.75;100.00
2875;BME280;1445;52.600;13.328;2023-03-20T03:16:59;100984.31;;;9.59;100.00
2875;BME280;1445;52.600;13.328;2023-03-20T03:19:27;100993.28;;;9.69;100.00
2875;BME280;1445;52.600;13.328;2023-03-20T03:21:53;100987.53;;;9.66;100.00
2875;BME280;1445;52.600;13.328;2023-03-20T03:24:46;100991.69;;;9.63;100.00
2875;BME280;1445;52.600;13.328;2023-03-20T03:27:22;101000.22;;;9.62;100.00
2875;BME280;1445;52.600;13.328;2023-03-20T03:29:56;101003.84;;;9.57;100.00
2875;BME280;1445;52.600;13.328;2023-03-20T03:32:36;100991.28;;;9.46;100.00
2875;BME280;1445;52.600;13.328;2023-03-20T03:35:05;101001.47;;;9.45;100.00
2875;BME280;1445;52.600;13.328;2023-03-20T03:43:05;101009.25;;;9.38;100.00
2875;BME280;1445;52.600;13.328;2023-03-20T03:45:43;101002.38;;;9.36;100.00
2875;BME280;1445;52.600;13.328;2023-03-20T03:48:14;101004.88;;;9.32;100.00
2875;BME280;1445;52.600;13.328;2023-03-20T03:50:44;101004.31;;;9.35;100.00
2875;BME280;1445;52.600;13.328;2023-03-20T03:53:16;101004.84;;;9.37;100.00
2875;BME280;1445;52.600;13.328;2023-03-20T03:55:48;101003.81;;;9.28;100.00
2875;BME280;1445;52.600;13.328;2023-03-20T03:58:22;100999.69;;;9.25;100.00
2875;BME280;1445;52.600;13.328;2023-03-20T04:00:53;101008.53;;;9.22;100.00
2875;BME280;1445;52.600;13.328;2023-03-20T04:03:22;101014.81;;;9.28;100.00
2875;BME280;1445;52.600;13.328;2023-03-20T04:05:50;101022.53;;;9.26;100.00
2875;BME280;1445;52.600;13.328;2023-03-20T04:08:18;101023.59;;;9.30;100.00
2875;BME280;1445;52.600;13.328;2023-03-20T04:10:43;101022.78;;;9.29;100.00
2875;BME280;1445;52.600;13.328;2023-03-20T04:13:09;101023.28;;;9.37;100.00
2875;BME280;1445;52.600;13.328;2023-03-20T04:15:36;101026.31;;;9.35;100.00
2875;BME280;1445;52.600;13.328;2023-03-20T04:18:03;101023.06;;;9.28;100.00
2875;BME280;1445;52.600;13.328;2023-03-20T04:20:29;101027.44;;;9.34;100.00
2875;BME280;1445;52.600;13.328;2023-03-20T04:22:54;101029.31;;;9.39;100.00
2875;BME280;1445;52.600;13.328;2023-03-20T04:25:22;101031.94;;;9.20;100.00
2875;BME280;1445;52.600;13.328;2023-03-20T04:27:48;101036.91;;;9.18;100.00
2875;BME280;1445;52.600;13.328;2023-03-20T04:30:14;101039.06;;;9.21;100.00
2875;BME280;1445;52.600;13.328;2023-03-20T04:32:40;101043.53;;;9.12;100.00
2875;BME280;1445;52.600;13.328;2023-03-20T04:35:06;101045.19;;;9.13;100.00
2875;BME280;1445;52.600;13.328;2023-03-20T04:37:31;101047.38;;;9.11;100.00
2875;BME280;1445;52.600;13.328;2023-03-20T04:39:57;101050.34;;;9.19;100.00
2875;BME280;1445;52.600;13.328;2023-03-20T04:42:22;101050.38;;;9.14;100.00
2875;BME280;1445;52.600;13.328;2023-03-20T04:44:47;101050.38;;;9.14;100.00
2875;BME280;1445;52.600;13.328;2023-03-20T04:47:13;101046.31;;;9.06;100.00
2875;BME280;1445;52.600;13.328;2023-03-20T04:49:38;101055.59;;;9.16;100.00
2875;BME280;1445;52.600;13.328;2023-03-20T04:52:03;101055.91;;;9.14;100.00
2875;BME280;1445;52.600;13.328;2023-03-20T04:54:29;101056.75;;;9.10;100.00
2875;BME280;1445;52.600;13.328;2023-03-20T04:56:55;101056.50;;;9.01;100.00
2875;BME280;1445;52.600;13.328;2023-03-20T04:59:20;101056.75;;;9.10;100.00
2875;BME280;1445;52.600;13.328;2023-03-20T05:01:46;101064.91;;;9.25;100.00
2875;BME280;1445;52.600;13.328;2023-03-20T05:04:11;101063.84;;;9.16;100.00
2875;BME280;1445;52.600;13.328;2023-03-20T05:06:36;101057.03;;;9.08;100.00
2875;BME280;1445;52.600;13.328;2023-03-20T05:09:02;101058.94;;;9.13;100.00
2875;BME280;1445;52.600;13.328;2023-03-20T05:11:29;101066.78;;;9.29;100.00
2875;BME280;1445;52.600;13.328;2023-03-20T05:13:54;101056.66;;;9.25;100.00
2875;BME280;1445;52.600;13.328;2023-03-20T05:16:20;101059.91;;;9.32;100.00
2875;BME280;1445;52.600;13.328;2023-03-20T05:18:45;101061.03;;;9.26;100.00
2875;BME280;1445;52.600;13.328;2023-03-20T05:21:11;101055.53;;;9.31;100.00
2875;BME280;1445;52.600;13.328;2023-03-20T05:23:36;101051.69;;;9.27;100.00
2875;BME280;1445;52.600;13.328;2023-03-20T05:26:02;101056.34;;;9.26;100.00
2875;BME280;1445;52.600;13.328;2023-03-20T05:28:28;101066.53;;;9.31;100.00
2875;BME280;1445;52.600;13.328;2023-03-20T05:30:54;101055.25;;;9.27;100.00
2875;BME280;1445;52.600;13.328;2023-03-20T05:33:20;101054.66;;;9.36;100.00
2875;BME280;1445;52.600;13.328;2023-03-20T05:35:45;101052.16;;;9.39;100.00
2875;BME280;1445;52.600;13.328;2023-03-20T05:38:11;101063.38;;;9.48;100.00
2875;BME280;1445;52.600;13.328;2023-03-20T05:40:36;101053.19;;;9.48;100.00
2875;BME280;1445;52.600;13.328;2023-03-20T05:43:02;101059.28;;;9.45;100.00
2875;BME280;1445;52.600;13.328;2023-03-20T05:45:28;101061.28;;;9.35;100.00
2875;BME280;1445;52.600;13.328;2023-03-20T05:47:54;101065.28;;;9.47;100.00
2875;BME280;1445;52.600;13.328;2023-03-20T05:50:19;101067.53;;;9.45;100.00
2875;BME280;1445;52.600;13.328;2023-03-20T05:52:48;101074.97;;;9.40;100.00
2875;BME280;1445;52.600;13.328;2023-03-20T05:55:14;101075.28;;;9.33;100.00
2875;BME280;1445;52.600;13.328;2023-03-20T05:57:40;101081.09;;;9.31;100.00
2875;BME280;1445;52.600;13.328;2023-03-20T06:00:06;101080.53;;;9.35;100.00
2875;BME280;1445;52.600;13.328;2023-03-20T06:02:33;101079.41;;;9.36;100.00
2875;BME280;1445;52.600;13.328;2023-03-20T06:04:58;101084.09;;;9.35;100.00
2875;BME280;1445;52.600;13.328;2023-03-20T06:07:23;101094.34;;;9.24;100.00
2875;BME280;1445;52.600;13.328;2023-03-20T06:09:49;101102.59;;;9.24;100.00
2875;BME280;1445;52.600;13.328;2023-03-20T06:12:15;101113.03;;;9.22;100.00
2875;BME280;1445;52.600;13.328;2023-03-20T06:14:40;101112.22;;;9.27;100.00
2875;BME280;1445;52.600;13.328;2023-03-20T06:17:06;101119.91;;;9.25;100.00
2875;BME280;1445;52.600;13.328;2023-03-20T06:19:31;101130.41;;;9.18;100.00
2875;BME280;1445;52.600;13.328;2023-03-20T06:21:56;101120.53;;;9.12;100.00
2875;BME280;1445;52.600;13.328;2023-03-20T06:24:22;101128.81;;;9.06;100.00
2875;BME280;1445;52.600;13.328;2023-03-20T06:26:48;101129.91;;;9.11;100.00
2875;BME280;1445;52.600;13.328;2023-03-20T06:29:13;101130.41;;;9.18;100.00
2875;BME280;1445;52.600;13.328;2023-03-20T06:31:39;101151.81;;;9.31;100.00
2875;BME280;1445;52.600;13.328;2023-03-20T06:34:04;101146.56;;;9.29;100.00
2875;BME280;1445;52.600;13.328;2023-03-20T06:36:30;101140.59;;;9.12;100.00
2875;BME280;1445;52.600;13.328;2023-03-20T06:38:56;101142.00;;;9.10;100.00
2875;BME280;1445;52.600;13.328;2023-03-20T06:41:21;101145.09;;;8.93;100.00
2875;BME280;1445;52.600;13.328;2023-03-20T06:43:47;101158.81;;;8.98;100.00
2875;BME280;1445;52.600;13.328;2023-03-20T06:46:13;101158.56;;;8.94;100.00
2875;BME280;1445;52.600;13.328;2023-03-20T06:48:38;101159.38;;;9.00;100.00
2875;BME280;1445;52.600;13.328;2023-03-20T06:51:03;101162.38;;;9.03;100.00
2875;BME280;1445;52.600;13.328;2023-03-20T06:53:29;101159.63;;;8.98;100.00
2875;BME280;1445;52.600;13.328;2023-03-20T06:55:54;101160.78;;;8.92;100.00
2875;BME280;1445;52.600;13.328;2023-03-20T06:58:20;101163.81;;;8.80;100.00
2875;BME280;1445;52.600;13.328;2023-03-20T07:00:45;101159.69;;;8.88;100.00
2875;BME280;1445;52.600;13.328;2023-03-20T07:03:11;101165.50;;;8.81;100.00
2875;BME280;1445;52.600;13.328;2023-03-20T07:05:37;101176.78;;;8.75;100.00
2875;BME280;1445;52.600;13.328;2023-03-20T07:08:03;101178.44;;;8.71;100.00
2875;BME280;1445;52.600;13.328;2023-03-20T07:10:29;101179.78;;;8.73;100.00
2875;BME280;1445;52.600;13.328;2023-03-20T07:12:55;101179.50;;;8.85;100.00
2875;BME280;1445;52.600;13.328;2023-03-20T07:15:21;101186.38;;;8.82;100.00
2875;BME280;1445;52.600;13.328;2023-03-20T07:17:46;101173.13;;;8.95;100.00
2875;BME280;1445;52.600;13.328;2023-03-20T07:20:12;101183.91;;;8.81;100.00
2875;BME280;1445;52.600;13.328;2023-03-20T07:22:38;101187.78;;;8.75;100.00
2875;BME280;1445;52.600;13.328;2023-03-20T07:25:06;101183.09;;;8.70;100.00
2875;BME280;1445;52.600;13.328;2023-03-20T07:27:32;101191.03;;;8.77;100.00
2875;BME280;1445;52.600;13.328;2023-03-20T07:29:57;101196.81;;;8.86;100.00
2875;BME280;1445;52.600;13.328;2023-03-20T07:32:23;101191.59;;;8.74;100.00
2875;BME280;1445;52.600;13.328;2023-03-20T07:34:48;101199.28;;;8.77;100.00
2875;BME280;1445;52.600;13.328;2023-03-20T07:37:14;101197.94;;;8.84;100.00
2875;BME280;1445;52.600;13.328;2023-03-20T07:39:41;101199.28;;;8.92;100.00
2875;BME280;1445;52.600;13.328;2023-03-20T07:42:06;101191.00;;;9.02;100.00
2875;BME280;1445;52.600;13.328;2023-03-20T07:44:32;101204.75;;;9.02;100.00
2875;BME280;1445;52.600;13.328;2023-03-20T07:46:57;101202.00;;;9.02;100.00
2875;BME280;1445;52.600;13.328;2023-03-20T07:49:23;101192.56;;;9.24;100.00
2875;BME280;1445;52.600;13.328;2023-03-20T07:51:49;101190.84;;;9.38;100.00
2875;BME280;1445;52.600;13.328;2023-03-20T07:54:15;101192.38;;;9.54;100.00
2875;BME280;1445;52.600;13.328;2023-03-20T07:56:41;101180.03;;;9.52;100.00
2875;BME280;1445;52.600;13.328;2023-03-20T07:59:06;101171.47;;;9.59;100.00
2875;BME280;1445;52.600;13.328;2023-03-20T08:01:32;101169.22;;;9.66;100.00
2875;BME280;1445;52.600;13.328;2023-03-20T08:03:58;101163.09;;;9.74;100.00
2875;BME280;1445;52.600;13.328;2023-03-20T08:06:23;101155.78;;;9.54;100.00
2875;BME280;1445;52.600;13.328;2023-03-20T08:08:48;101162.63;;;9.62;100.00
2875;BME280;1445;52.600;13.328;2023-03-20T08:11:17;101158.59;;;9.49;100.00
2875;BME280;1445;52.600;13.328;2023-03-20T08:13:42;101170.41;;;9.49;100.00
2875;BME280;1445;52.600;13.328;2023-03-20T08:16:08;101180.59;;;9.49;100.00
2875;BME280;1445;52.600;13.328;2023-03-20T08:18:33;101170.97;;;9.46;100.00
2875;BME280;1445;52.600;13.328;2023-03-20T08:20:59;101177.56;;;9.50;100.00
2875;BME280;1445;52.600;13.328;2023-03-20T08:23:25;101177.31;;;9.47;100.00
2875;BME280;1445;52.600;13.328;2023-03-20T08:25:51;101178.13;;;9.47;100.00
2875;BME280;1445;52.600;13.328;2023-03-20T08:28:18;101182.25;;;9.50;100.00
2875;BME280;1445;52.600;13.328;2023-03-20T08:30:45;101173.06;;;9.70;100.00
2875;BME280;1445;52.600;13.328;2023-03-20T08:33:11;101174.06;;;9.79;100.00
2875;BME280;1445;52.600;13.328;2023-03-20T08:35:37;101166.91;;;9.83;100.00
2875;BME280;1445;52.600;13.328;2023-03-20T08:38:03;101145.72;;;10.13;100.00
2875;BME280;1445;52.600;13.328;2023-03-20T08:40:29;101130.59;;;10.10;100.00
2875;BME280;1445;52.600;13.328;2023-03-20T08:42:54;101132.19;;;10.16;100.00
2875;BME280;1445;52.600;13.328;2023-03-20T08:45:20;101116.53;;;10.46;100.00
2875;BME280;1445;52.600;13.328;2023-03-20T08:47:49;101110.41;;;10.49;100.00
2875;BME280;1445;52.600;13.328;2023-03-20T08:50:16;101110.41;;;10.73;100.00
2875;BME280;1445;52.600;13.328;2023-03-20T08:52:41;101109.91;;;11.14;100.00
2875;BME280;1445;52.600;13.328;2023-03-20T08:55:12;101089.28;;;10.87;100.00
2875;BME280;1445;52.600;13.328;2023-03-20T08:57:38;101084.59;;;10.88;100.00
2875;BME280;1445;52.600;13.328;2023-03-20T09:00:05;101091.22;;;10.63;100.00
2875;BME280;1445;52.600;13.328;2023-03-20T09:02:32;101098.31;;;10.93;100.00
2875;BME280;1445;52.600;13.328;2023-03-20T09:04:57;101098.22;;;10.79;100.00
2875;BME280;1445;52.600;13.328;2023-03-20T09:07:23;101095.47;;;10.79;100.00
2875;BME280;1445;52.600;13.328;2023-03-20T09:09:48;101086.16;;;10.94;100.00
2875;BME280;1445;52.600;13.328;2023-03-20T09:12:14;101090.53;;;11.19;100.00
2875;BME280;1445;52.600;13.328;2023-03-20T09:14:39;101091.50;;;11.09;100.00
2875;BME280;1445;52.600;13.328;2023-03-20T09:17:06;101068.00;;;10.93;100.00
2875;BME280;1445;52.600;13.328;2023-03-20T09:19:32;101073.28;;;11.08;100.00
2875;BME280;1445;52.600;13.328;2023-03-20T09:21:57;101073.22;;;11.13;100.00
2875;BME280;1445;52.600;13.328;2023-03-20T09:24:22;101067.31;;;11.01;100.00
2875;BME280;1445;52.600;13.328;2023-03-20T09:26:48;101074.50;;;11.02;100.00
2875;BME280;1445;52.600;13.328;2023-03-20T09:29:13;101068.75;;;11.17;100.00
2875;BME280;1445;52.600;13.328;2023-03-20T09:31:39;101074.56;;;11.16;100.00
2875;BME280;1445;52.600;13.328;2023-03-20T09:34:05;101073.38;;;11.22;100.00
2875;BME280;1445;52.600;13.328;2023-03-20T09:36:30;101080.16;;;11.11;100.00
2875;BME280;1445;52.600;13.328;2023-03-20T09:38:56;101071.28;;;11.33;100.00
2875;BME280;1445;52.600;13.328;2023-03-20T09:41:23;101078.16;;;11.35;100.00
2875;BME280;1445;52.600;13.328;2023-03-20T09:46:36;101066.72;;;11.61;100.00
2875;BME280;1445;52.600;13.328;2023-03-20T09:52:23;101075.44;;;11.87;100.00
2875;BME280;1445;52.600;13.328;2023-03-20T09:54:53;101067.50;;;11.80;100.00
2875;BME280;1445;52.600;13.328;2023-03-20T09:57:26;101066.25;;;11.73;100.00
2875;BME280;1445;52.600;13.328;2023-03-20T10:00:03;101078.94;;;11.55;100.00
2875;BME280;1445;52.600;13.328;2023-03-20T10:02:43;101071.47;;;11.74;100.00
2875;BME280;1445;52.600;13.328;2023-03-20T10:05:18;101074.56;;;11.73;100.00
2875;BME280;1445;52.600;13.328;2023-03-20T10:07:44;101078.69;;;11.37;100.00
2875;BME280;1445;52.600;13.328;2023-03-20T10:10:14;101089.34;;;11.25;100.00
2875;BME280;1445;52.600;13.328;2023-03-20T10:12:48;101082.56;;;11.17;100.00
2875;BME280;1445;52.600;13.328;2023-03-20T10:15:36;101080.75;;;11.27;100.00
2875;BME280;1445;52.600;13.328;2023-03-20T10:18:26;101089.28;;;11.30;100.00
2875;BME280;1445;52.600;13.328;2023-03-20T10:21:16;101085.53;;;11.02;100.00
2875;BME280;1445;52.600;13.328;2023-03-20T10:26:18;101081.78;;;11.12;100.00
2875;BME280;1445;52.600;13.328;2023-03-20T10:29:06;101087.16;;;11.22;100.00
2875;BME280;1445;52.600;13.328;2023-03-20T10:34:38;101082.41;;;11.46;100.00
2875;BME280;1445;52.600;13.328;2023-03-20T10:37:44;101082.34;;;11.52;100.00
2875;BME280;1445;52.600;13.328;2023-03-20T10:40:23;101076.03;;;11.65;100.00
2875;BME280;1445;52.600;13.328;2023-03-20T10:42:52;101068.66;;;11.60;100.00
2875;BME280;1445;52.600;13.328;2023-03-20T10:47:56;101058.78;;;11.92;100.00
2875;BME280;1445;52.600;13.328;2023-03-20T10:50:30;101061.19;;;11.61;100.00
2875;BME280;1445;52.600;13.328;2023-03-20T10:52:58;101064.03;;;11.56;100.00
2875;BME280;1445;52.600;13.328;2023-03-20T10:55:28;101062.38;;;11.55;100.00
2875;BME280;1445;52.600;13.328;2023-03-20T10:58:10;101062.47;;;11.50;100.00
2875;BME280;1445;52.600;13.328;2023-03-20T11:00:38;101077.78;;;11.42;100.00
2875;BME280;1445;52.600;13.328;2023-03-20T11:03:05;101061.72;;;11.44;100.00
2875;BME280;1445;52.600;13.328;2023-03-20T11:05:36;101060.25;;;11.52;100.00
2875;BME280;1445;52.600;13.328;2023-03-20T11:08:07;101053.00;;;11.56;100.00
2875;BME280;1445;52.600;13.328;2023-03-20T11:10:36;101054.47;;;11.67;100.00
2875;BME280;1445;52.600;13.328;2023-03-20T11:13:24;101051.75;;;11.48;100.00
2875;BME280;1445;52.600;13.328;2023-03-20T11:15:51;101063.81;;;11.52;100.00
2875;BME280;1445;52.600;13.328;2023-03-20T11:18:17;101070.25;;;11.29;100.00
2875;BME280;1445;52.600;13.328;2023-03-20T11:21:01;101061.88;;;11.15;100.00
2875;BME280;1445;52.600;13.328;2023-03-20T11:23:34;101079.88;;;11.31;100.00
2875;BME280;1445;52.600;13.328;2023-03-20T11:26:00;101069.78;;;11.21;100.00
2875;BME280;1445;52.600;13.328;2023-03-20T11:28:50;101060.69;;;11.40;100.00
2875;BME280;1445;52.600;13.328;2023-03-20T11:31:19;101068.53;;;11.33;100.00
2875;BME280;1445;52.600;13.328;2023-03-20T11:33:51;101067.66;;;11.37;100.00
2875;BME280;1445;52.600;13.328;2023-03-20T11:36:26;101058.84;;;11.35;100.00
2875;BME280;1445;52.600;13.328;2023-03-20T11:39:00;101062.50;;;11.31;100.00
2875;BME280;1445;52.600;13.328;2023-03-20T11:41:29;101057.78;;;11.31;100.00
2875;BME280;1445;52.600;13.328;2023-03-20T11:43:54;101060.47;;;11.36;100.00
2875;BME280;1445;52.600;13.328;2023-03-20T11:46:21;101048.69;;;11.50;100.00
2875;BME280;1445;52.600;13.328;2023-03-20T11:49:05;101048.78;;;11.44;100.00
2875;BME280;1445;52.600;13.328;2023-03-20T11:51:31;101043.53;;;11.43;100.00
2875;BME280;1445;52.600;13.328;2023-03-20T11:54:00;101039.03;;;11.47;100.00
2875;BME280;1445;52.600;13.328;2023-03-20T11:56:28;101037.06;;;11.34;100.00
2875;BME280;1445;52.600;13.328;2023-03-20T11:59:13;101030.31;;;11.40;100.00
2875;BME280;1445;52.600;13.328;2023-03-20T12:01:45;101046.44;;;11.52;100.00
2875;BME280;1445;52.600;13.328;2023-03-20T12:06:48;101030.97;;;11.51;100.00
2875;BME280;1445;52.600;13.328;2023-03-20T12:17:34;101038.31;;;11.41;100.00
2875;BME280;1445;52.600;13.328;2023-03-20T12:20:35;101011.91;;;11.35;100.00
2875;BME280;1445;52.600;13.328;2023-03-20T12:26:03;101029.50;;;11.39;100.00
2875;BME280;1445;52.600;13.328;2023-03-20T12:28:51;101010.13;;;11.44;100.00
2875;BME280;1445;52.600;13.328;2023-03-20T12:31:45;101017.28;;;11.45;100.00
2875;BME280;1445;52.600;13.328;2023-03-20T12:34:20;101015.84;;;11.48;100.00
2875;BME280;1445;52.600;13.328;2023-03-20T12:36:48;101036.16;;;11.38;100.00
2875;BME280;1445;52.600;13.328;2023-03-20T12:39:32;101025.72;;;11.35;100.00
2875;BME280;1445;52.600;13.328;2023-03-20T12:53:16;101013.25;;;11.38;100.00
2875;BME280;1445;52.600;13.328;2023-03-20T12:56:07;101012.72;;;11.36;100.00
2875;BME280;1445;52.600;13.328;2023-03-20T12:58:46;101000.19;;;11.43;100.00
2875;BME280;1445;52.600;13.328;2023-03-20T13:01:31;101015.72;;;11.39;100.00
2875;BME280;1445;52.600;13.328;2023-03-20T13:09:47;100999.25;;;11.67;100.00
2875;BME280;1445;52.600;13.328;2023-03-20T13:15:15;100992.50;;;11.73;100.00
2875;BME280;1445;52.600;13.328;2023-03-20T13:18:13;100990.41;;;11.84;100.00
2875;BME280;1445;52.600;13.328;2023-03-20T13:20:55;100989.63;;;11.97;100.00
2875;BME280;1445;52.600;13.328;2023-03-20T13:37:11;100969.50;;;11.78;100.00
2875;BME280;1445;52.600;13.328;2023-03-20T13:42:23;100974.75;;;11.93;100.00
2875;BME280;1445;52.600;13.328;2023-03-20T13:44:52;100986.03;;;11.97;100.00
2875;BME280;1445;52.600;13.328;2023-03-20T13:47:23;100975.75;;;11.83;100.00
2875;BME280;1445;52.600;13.328;2023-03-20T13:50:35;100985.75;;;11.79;100.00
2875;BME280;1445;52.600;13.328;2023-03-20T13:55:47;100976.81;;;11.87;100.00
2875;BME280;1445;52.600;13.328;2023-03-20T13:58:44;100986.38;;;11.76;100.00
2875;BME280;1445;52.600;13.328;2023-03-20T14:01:24;100979.81;;;11.72;100.00
2875;BME280;1445;52.600;13.328;2023-03-20T14:03:54;100980.44;;;11.69;100.00
2875;BME280;1445;52.600;13.328;2023-03-20T14:11:49;100979.75;;;11.44;100.00
2875;BME280;1445;52.600;13.328;2023-03-20T14:16:48;100983.88;;;11.28;100.00
2875;BME280;1445;52.600;13.328;2023-03-20T14:19:20;100977.75;;;11.31;100.00
2875;BME280;1445;52.600;13.328;2023-03-20T14:21:52;100973.59;;;11.15;100.00
2875;BME280;1445;52.600;13.328;2023-03-20T14:24:18;100974.13;;;11.17;100.00
2875;BME280;1445;52.600;13.328;2023-03-20T14:26:50;100986.88;;;11.13;100.00
2875;BME280;1445;52.600;13.328;2023-03-20T14:29:26;100974.47;;;11.29;100.00
2875;BME280;1445;52.600;13.328;2023-03-20T14:34:57;100972.66;;;11.38;100.00
2875;BME280;1445;52.600;13.328;2023-03-20T14:37:37;100980.09;;;11.57;100.00
2875;BME280;1445;52.600;13.328;2023-03-20T14:45:42;100971.63;;;11.34;100.00
2875;BME280;1445;52.600;13.328;2023-03-20T14:53:30;100967.38;;;11.23;100.00
2875;BME280;1445;52.600;13.328;2023-03-20T14:58:45;100952.56;;;11.19;100.00
2875;BME280;1445;52.600;13.328;2023-03-20T15:03:49;100954.75;;;11.03;100.00
2875;BME280;1445;52.600;13.328;2023-03-20T15:06:18;100954.22;;;11.01;100.00
2875;BME280;1445;52.600;13.328;2023-03-20T15:09:08;100959.44;;;11.03;100.00
2875;BME280;1445;52.600;13.328;2023-03-20T15:11:33;100964.28;;;11.11;100.00
2875;BME280;1445;52.600;13.328;2023-03-20T15:14:00;100955.19;;;11.10;100.00
2875;BME280;1445;52.600;13.328;2023-03-20T15:16:30;100950.03;;;11.04;100.00
2875;BME280;1445;52.600;13.328;2023-03-20T15:18:57;100956.31;;;11.09;100.00
2875;BME280;1445;52.600;13.328;2023-03-20T15:23:55;100946.91;;;11.10;100.00
2875;BME280;1445;52.600;13.328;2023-03-20T15:26:21;100937.66;;;11.01;100.00